createdAt,value
2022-08-31T00:02:12.724Z,73.45
2022-08-31T00:04:42.134Z,71.99
2022-08-31T00:07:10.695Z,71.94
2022-08-31T00:09:39.002Z,71.13
2022-08-31T00:12:07.427Z,70.51
2022-08-31T00:14:37.013Z,69.22
2022-08-31T00:17:05.305Z,72.45
2022-08-31T00:19:33.943Z,72.90
2022-08-31T00:22:02.940Z,71.22
2022-08-31T00:24:32.211Z,71.08
2022-08-31T00:27:00.951Z,70.99
2022-08-31T00:29:29.196Z,71.03
2022-08-31T00:31:57.547Z,72.16
2022-08-31T00:34:28.005Z,71.34
2022-08-31T00:36:56.432Z,73.29
2022-08-31T00:39:24.657Z,74.11
2022-08-31T00:41:52.994Z,72.31
2022-08-31T00:44:22.881Z,72.36
2022-08-31T00:46:51.604Z,74.11
2022-08-31T00:49:32.455Z,72.91
2022-08-31T00:52:14.781Z,72.37
2022-08-31T00:54:56.566Z,73.00
2022-08-31T00:57:37.021Z,71.71
2022-08-31T01:00:12.295Z,71.67
2022-08-31T01:02:41.640Z,72.62
2022-08-31T01:05:11.740Z,72.47
2022-08-31T01:07:48.785Z,72.10
2022-08-31T01:10:23.954Z,73.70
2022-08-31T01:12:57.242Z,72.74
2022-08-31T01:15:30.187Z,72.66
2022-08-31T01:18:04.225Z,73.12
2022-08-31T01:20:49.566Z,73.30
2022-08-31T01:23:42.868Z,72.39
2022-08-31T01:26:20.292Z,72.76
2022-08-31T01:28:50.965Z,72.47
2022-08-31T01:31:32.261Z,72.27
2022-08-31T01:34:03.267Z,72.41
2022-08-31T01:36:34.659Z,73.69
2022-08-31T01:39:06.006Z,73.33
2022-08-31T01:41:34.932Z,73.51
2022-08-31T01:44:03.400Z,75.13
2022-08-31T01:46:31.809Z,79.10
2022-08-31T01:49:02.000Z,79.41
2022-08-31T01:51:30.770Z,81.80
2022-08-31T01:53:59.097Z,82.42
2022-08-31T01:56:38.530Z,82.90
2022-08-31T01:59:11.696Z,80.90
2022-08-31T02:02:08.979Z,79.62
2022-08-31T02:04:38.392Z,81.25
2022-08-31T02:07:06.627Z,78.89
2022-08-31T02:09:35.714Z,78.29
2022-08-31T02:12:04.564Z,76.55
2022-08-31T02:14:34.676Z,76.89
2022-08-31T02:17:02.908Z,77.92
2022-08-31T02:19:31.169Z,76.52
2022-08-31T02:21:59.601Z,78.11
2022-08-31T02:24:28.805Z,79.23
2022-08-31T02:26:57.913Z,77.01
2022-08-31T02:29:27.809Z,76.81
2022-08-31T02:31:57.049Z,78.95
2022-08-31T02:34:26.022Z,77.58
2022-08-31T02:36:54.285Z,77.88
2022-08-31T02:39:23.380Z,75.88
2022-08-31T02:41:51.973Z,74.78
2022-08-31T02:44:20.250Z,75.76
2022-08-31T02:46:49.538Z,77.90
2022-08-31T02:49:40.871Z,76.86
2022-08-31T02:52:09.205Z,76.63
2022-08-31T02:54:38.236Z,76.12
2022-08-31T02:57:07.114Z,76.79
2022-08-31T02:59:35.440Z,78.01
2022-08-31T03:02:04.188Z,79.23
2022-08-31T03:04:34.249Z,76.92
2022-08-31T03:07:02.454Z,78.17
2022-08-31T03:09:32.747Z,77.20
2022-08-31T03:12:01.212Z,75.45
2022-08-31T03:14:29.551Z,76.40
2022-08-31T03:16:57.813Z,76.50
2022-08-31T03:19:26.107Z,76.22
2022-08-31T03:21:56.176Z,76.50
2022-08-31T03:24:27.331Z,77.78
2022-08-31T03:26:56.223Z,78.06
2022-08-31T03:29:24.491Z,77.93
2022-08-31T03:31:55.479Z,77.78
2022-08-31T03:34:24.842Z,77.92
2022-08-31T03:36:53.187Z,76.70
2022-08-31T03:39:21.717Z,78.57
2022-08-31T03:41:50.071Z,77.39
2022-08-31T03:44:21.793Z,76.50
2022-08-31T03:46:51.116Z,77.75
2022-08-31T03:49:20.499Z,78.05
2022-08-31T03:52:05.287Z,78.04
2022-08-31T03:54:41.691Z,77.45
2022-08-31T03:57:10.276Z,77.18
2022-08-31T03:59:38.492Z,77.84
2022-08-31T04:02:18.890Z,77.78
2022-08-31T04:05:07.459Z,76.48
2022-08-31T04:07:55.085Z,77.90
2022-08-31T04:10:44.423Z,77.60
2022-08-31T04:13:29.909Z,76.81
2022-08-31T04:16:21.917Z,76.38
2022-08-31T04:19:30.295Z,77.18
2022-08-31T04:22:04.331Z,76.18
2022-08-31T04:24:37.224Z,76.52
2022-08-31T04:27:08.238Z,76.50
2022-08-31T04:29:36.458Z,76.34
2022-08-31T04:32:04.697Z,78.27
2022-08-31T04:34:32.979Z,78.64
2022-08-31T04:37:01.817Z,77.33
2022-08-31T04:39:32.328Z,78.98
2022-08-31T04:42:01.313Z,77.31
2022-08-31T04:44:33.119Z,76.95
2022-08-31T04:47:02.611Z,78.72
2022-08-31T04:49:31.103Z,78.00
2022-08-31T04:51:59.442Z,78.71
2022-08-31T04:54:31.347Z,79.00
2022-08-31T04:56:59.627Z,78.79
2022-08-31T04:59:32.860Z,78.36
2022-08-31T05:02:17.335Z,77.27
2022-08-31T05:04:51.333Z,77.01
2022-08-31T05:07:19.564Z,78.74
2022-08-31T05:09:48.207Z,77.98
2022-08-31T05:12:16.802Z,77.84
2022-08-31T05:14:48.072Z,78.07
2022-08-31T05:17:24.543Z,78.17
2022-08-31T05:19:52.981Z,77.71
2022-08-31T05:22:21.479Z,78.32
2022-08-31T05:24:52.946Z,80.06
2022-08-31T05:27:21.472Z,79.63
2022-08-31T05:29:50.830Z,78.82
2022-08-31T05:32:39.414Z,78.82
2022-08-31T05:35:09.126Z,77.52
2022-08-31T05:37:37.585Z,78.33
2022-08-31T05:40:07.959Z,78.84
2022-08-31T05:42:37.250Z,80.01
2022-08-31T05:45:06.017Z,80.01
2022-08-31T05:47:34.423Z,79.48
2022-08-31T05:50:02.779Z,78.22
2022-08-31T05:52:37.565Z,78.37
2022-08-31T05:55:06.316Z,79.11
2022-08-31T05:57:34.596Z,79.10
2022-08-31T06:00:05.629Z,79.31
2022-08-31T06:02:42.299Z,78.08
2022-08-31T06:05:13.220Z,78.05
2022-08-31T06:07:42.428Z,78.90
2022-08-31T06:10:14.995Z,78.32
2022-08-31T06:12:47.405Z,76.97
2022-08-31T06:15:16.308Z,77.51
2022-08-31T06:17:45.288Z,78.27
2022-08-31T06:20:17.783Z,78.39
2022-08-31T06:22:48.002Z,78.45
2022-08-31T06:25:26.010Z,77.65
2022-08-31T06:27:56.575Z,77.70
2022-08-31T06:30:27.543Z,77.36
2022-08-31T06:32:58.819Z,77.47
2022-08-31T06:35:31.978Z,77.34
2022-08-31T06:38:18.541Z,76.55
2022-08-31T06:41:18.958Z,76.64
2022-08-31T06:44:10.197Z,76.40
2022-08-31T06:46:52.595Z,76.08
2022-08-31T06:49:24.347Z,75.93
2022-08-31T06:51:52.610Z,75.62
2022-08-31T06:54:29.554Z,75.19
2022-08-31T06:57:22.207Z,75.15
2022-08-31T07:00:10.079Z,75.36
2022-08-31T07:02:52.965Z,74.56
2022-08-31T07:05:25.677Z,74.83
2022-08-31T07:07:55.106Z,74.09
2022-08-31T07:10:23.450Z,72.73
2022-08-31T07:12:51.680Z,72.77
2022-08-31T07:15:19.936Z,72.90
2022-08-31T07:17:49.912Z,72.81
2022-08-31T07:20:18.138Z,72.26
2022-08-31T07:22:46.569Z,72.39
2022-08-31T07:25:36.289Z,72.11
2022-08-31T07:28:05.360Z,71.43
2022-08-31T07:30:42.300Z,71.16
2022-08-31T07:33:12.580Z,71.04
2022-08-31T07:35:47.744Z,70.68
2022-08-31T07:39:06.614Z,70.33
2022-08-31T07:41:55.288Z,69.25
2022-08-31T07:44:24.334Z,70.02
2022-08-31T07:46:55.286Z,69.04
2022-08-31T07:49:26.363Z,68.26
2022-08-31T07:52:25.067Z,68.47
2022-08-31T07:55:12.445Z,66.48
2022-08-31T07:57:54.906Z,67.39
2022-08-31T08:00:30.309Z,66.64
2022-08-31T08:03:08.012Z,66.51
2022-08-31T08:05:56.518Z,65.75
2022-08-31T08:08:36.041Z,63.53
2022-08-31T08:11:22.910Z,65.20
2022-08-31T08:14:14.514Z,64.84
2022-08-31T08:16:55.056Z,63.50
2022-08-31T08:19:35.866Z,63.32
2022-08-31T08:22:04.544Z,62.71
2022-08-31T08:24:46.855Z,62.49
2022-08-31T08:27:30.848Z,62.59
2022-08-31T08:30:16.440Z,62.21
2022-08-31T08:32:45.347Z,61.50
2022-08-31T08:35:13.800Z,60.14
2022-08-31T08:37:57.664Z,59.85
2022-08-31T08:40:42.578Z,57.06
2022-08-31T08:43:18.111Z,56.80
2022-08-31T08:45:51.758Z,56.44
2022-08-31T08:48:28.126Z,56.32
2022-08-31T08:50:56.875Z,54.63
2022-08-31T08:53:34.237Z,54.43
2022-08-31T08:56:32.827Z,54.34
2022-08-31T08:59:04.546Z,52.24
2022-08-31T09:01:37.514Z,56.25
2022-08-31T09:04:35.598Z,51.73
2022-08-31T09:08:05.188Z,53.20
2022-08-31T09:10:58.917Z,53.17
2022-08-31T09:13:55.482Z,49.35
2022-08-31T09:16:44.748Z,50.34
2022-08-31T09:19:17.382Z,52.15
2022-08-31T09:21:52.380Z,50.32
2022-08-31T09:24:27.531Z,49.05
2022-08-31T09:28:02.146Z,51.17
2022-08-31T09:30:45.352Z,50.20
2022-08-31T09:33:26.654Z,50.69
2022-08-31T09:36:19.076Z,48.69
2022-08-31T09:38:47.443Z,50.67
2022-08-31T09:41:33.415Z,48.84
2022-08-31T09:44:29.598Z,47.60
2022-08-31T09:47:05.395Z,47.95
2022-08-31T09:49:38.706Z,48.68
2022-08-31T09:52:45.212Z,46.07
2022-08-31T09:55:25.519Z,47.63
2022-08-31T09:58:03.226Z,47.30
2022-08-31T10:00:47.971Z,47.12
2022-08-31T10:03:28.363Z,48.18
2022-08-31T10:05:56.567Z,45.79
2022-08-31T10:08:38.354Z,47.97
2022-08-31T10:11:19.733Z,49.13
2022-08-31T10:14:06.286Z,52.04
2022-08-31T10:16:49.637Z,50.88
2022-08-31T10:19:30.505Z,49.90
2022-08-31T10:22:25.712Z,48.80
2022-08-31T10:25:21.673Z,46.32
2022-08-31T10:28:12.122Z,45.01
2022-08-31T10:30:58.394Z,43.95
2022-08-31T10:34:09.391Z,43.65
2022-08-31T10:36:41.536Z,46.01
2022-08-31T10:39:37.706Z,43.71
2022-08-31T10:42:25.741Z,44.19
2022-08-31T10:45:03.557Z,44.63
2022-08-31T10:47:34.514Z,49.18
2022-08-31T10:50:04.685Z,49.98
2022-08-31T10:52:46.255Z,50.93
2022-08-31T10:55:29.155Z,47.69
2022-08-31T10:58:35.999Z,46.53
2022-08-31T11:01:19.346Z,49.27
2022-08-31T11:04:28.758Z,47.62
2022-08-31T11:07:26.720Z,45.77
2022-08-31T11:10:20.082Z,45.25
2022-08-31T11:13:03.131Z,45.41
2022-08-31T11:16:01.763Z,44.82
2022-08-31T11:18:59.410Z,47.81
2022-08-31T11:21:51.061Z,47.31
2022-08-31T11:24:41.398Z,46.29
2022-08-31T11:27:24.747Z,46.60
2022-08-31T11:30:24.577Z,44.45
2022-08-31T11:33:00.528Z,46.26
2022-08-31T11:35:48.218Z,47.16
2022-08-31T11:39:03.539Z,47.90
2022-08-31T11:41:31.608Z,43.89
2022-08-31T11:44:04.451Z,43.79
2022-08-31T11:46:40.136Z,44.76
2022-08-31T11:49:10.902Z,44.95
2022-08-31T11:51:42.065Z,43.43
2022-08-31T11:54:26.630Z,45.50
2022-08-31T11:56:57.020Z,43.79
2022-08-31T11:59:30.233Z,44.48
2022-08-31T12:02:20.904Z,45.49
2022-08-31T12:04:51.178Z,45.19
2022-08-31T12:07:35.968Z,46.07
2022-08-31T12:10:07.203Z,45.23
2022-08-31T12:13:03.441Z,44.59
2022-08-31T12:16:12.179Z,43.91
2022-08-31T12:19:04.655Z,42.50
2022-08-31T12:21:57.330Z,42.89
2022-08-31T12:25:04.135Z,43.83
2022-08-31T12:28:01.352Z,43.31
2022-08-31T12:30:29.899Z,40.60
2022-08-31T12:33:08.192Z,41.69
2022-08-31T12:35:39.062Z,40.75
2022-08-31T12:38:16.922Z,41.81
2022-08-31T12:40:52.114Z,41.10
2022-08-31T12:43:49.277Z,40.81
2022-08-31T12:47:19.220Z,44.03
2022-08-31T12:50:38.215Z,43.01
2022-08-31T12:53:18.247Z,43.80
2022-08-31T12:56:35.703Z,41.98
2022-08-31T13:00:01.354Z,40.75
2022-08-31T13:02:33.364Z,42.98
2022-08-31T13:05:16.590Z,42.15
2022-08-31T13:07:44.807Z,40.45
2022-08-31T13:10:26.624Z,39.51
2022-08-31T13:13:00.737Z,41.44
2022-08-31T13:15:40.173Z,39.52
2022-08-31T13:18:26.206Z,42.92
2022-08-31T13:21:06.790Z,42.77
2022-08-31T13:23:48.200Z,41.30
2022-08-31T13:26:25.479Z,41.51
2022-08-31T13:29:00.040Z,41.10
2022-08-31T13:31:33.621Z,39.83
2022-08-31T13:34:07.542Z,40.17
2022-08-31T13:36:51.730Z,38.48
2022-08-31T13:39:39.120Z,38.30
2022-08-31T13:42:22.153Z,38.23
2022-08-31T13:44:59.791Z,38.62
2022-08-31T13:47:47.612Z,38.60
2022-08-31T13:50:52.639Z,38.03
2022-08-31T13:53:53.755Z,36.13
2022-08-31T13:56:46.493Z,38.63
2022-08-31T13:59:22.236Z,36.75
2022-08-31T14:02:22.314Z,35.90
2022-08-31T14:04:57.487Z,34.79
2022-08-31T14:07:43.963Z,34.62
2022-08-31T14:10:32.677Z,35.90
2022-08-31T14:13:14.263Z,37.76
2022-08-31T14:15:58.219Z,37.15
2022-08-31T14:18:35.631Z,39.31
2022-08-31T14:21:23.071Z,39.72
2022-08-31T14:24:03.159Z,40.82
2022-08-31T14:26:38.393Z,41.14
2022-08-31T14:29:12.879Z,41.17
2022-08-31T14:31:49.165Z,41.16
2022-08-31T14:34:34.022Z,41.32
2022-08-31T14:37:11.292Z,38.95
2022-08-31T14:39:46.458Z,39.34
2022-08-31T14:42:36.338Z,40.47
2022-08-31T14:45:18.386Z,40.33
2022-08-31T14:47:52.448Z,41.43
2022-08-31T14:50:26.389Z,40.29
2022-08-31T14:52:58.332Z,37.99
2022-08-31T14:55:30.090Z,39.68
2022-08-31T14:58:08.682Z,39.63
2022-08-31T15:00:43.912Z,40.21
2022-08-31T15:03:15.211Z,38.55
2022-08-31T15:05:43.792Z,36.41
2022-08-31T15:08:12.462Z,37.29
2022-08-31T15:10:41.206Z,36.43
2022-08-31T15:13:09.669Z,38.09
2022-08-31T15:15:38.036Z,36.30
2022-08-31T15:18:06.572Z,38.72
2022-08-31T15:20:37.688Z,36.82
2022-08-31T15:23:06.956Z,37.03
2022-08-31T15:25:36.628Z,37.92
2022-08-31T15:28:05.150Z,37.97
2022-08-31T15:30:33.907Z,37.74
2022-08-31T15:33:02.119Z,38.43
2022-08-31T15:35:31.856Z,37.58
2022-08-31T15:38:01.262Z,37.64
2022-08-31T15:40:38.569Z,38.53
2022-08-31T15:43:09.586Z,39.09
2022-08-31T15:45:38.014Z,39.15
2022-08-31T15:48:24.608Z,38.64
2022-08-31T15:51:00.601Z,38.62
2022-08-31T15:53:30.792Z,39.21
2022-08-31T15:56:06.638Z,38.69
2022-08-31T15:58:39.027Z,39.85
2022-08-31T16:01:16.648Z,39.35
2022-08-31T16:03:52.571Z,38.71
2022-08-31T16:06:28.051Z,40.28
2022-08-31T16:08:56.855Z,40.13
2022-08-31T16:11:31.205Z,38.90
2022-08-31T16:14:00.065Z,39.60
2022-08-31T16:16:34.496Z,39.66
2022-08-31T16:19:04.509Z,39.49
2022-08-31T16:21:37.364Z,39.16
2022-08-31T16:24:09.797Z,39.05
2022-08-31T16:26:43.307Z,38.46
2022-08-31T16:29:22.291Z,39.52
2022-08-31T16:31:51.124Z,38.90
2022-08-31T16:34:20.936Z,39.09
2022-08-31T16:36:53.064Z,39.12
2022-08-31T16:39:24.354Z,38.94
2022-08-31T16:41:54.613Z,39.10
2022-08-31T16:44:25.580Z,38.70
2022-08-31T16:47:07.357Z,38.36
2022-08-31T16:49:36.392Z,38.91
2022-08-31T16:52:21.296Z,38.23
2022-08-31T16:54:52.054Z,38.66
2022-08-31T16:57:27.208Z,39.20
2022-08-31T16:59:57.615Z,39.62
2022-08-31T17:02:27.188Z,40.03
2022-08-31T17:05:00.584Z,39.66
2022-08-31T17:07:29.205Z,39.47
2022-08-31T17:10:04.081Z,39.65
2022-08-31T17:12:32.769Z,40.18
2022-08-31T17:15:04.255Z,40.50
2022-08-31T17:17:33.108Z,40.08
2022-08-31T17:20:01.622Z,40.17
2022-08-31T17:22:33.775Z,40.07
2022-08-31T17:25:04.364Z,40.38
2022-08-31T17:27:34.989Z,40.24
2022-08-31T17:30:07.379Z,40.05
2022-08-31T17:32:39.476Z,41.02
2022-08-31T17:35:19.163Z,40.03
2022-08-31T17:37:47.923Z,40.97
2022-08-31T17:40:16.948Z,43.91
2022-08-31T17:42:46.295Z,44.47
2022-08-31T17:45:15.624Z,44.83
2022-08-31T17:47:44.002Z,45.05
2022-08-31T17:50:14.030Z,45.96
2022-08-31T17:52:42.287Z,46.53
2022-08-31T17:55:10.751Z,47.30
2022-08-31T17:57:40.753Z,48.01
2022-08-31T18:00:10.055Z,48.98
2022-08-31T18:02:38.526Z,49.57
2022-08-31T18:05:09.415Z,50.50
2022-08-31T18:07:41.057Z,50.27
2022-08-31T18:10:10.320Z,50.31
2022-08-31T18:12:41.939Z,50.80
2022-08-31T18:15:13.853Z,51.21
2022-08-31T18:17:43.115Z,52.64
2022-08-31T18:20:12.541Z,51.31
2022-08-31T18:22:43.590Z,51.96
2022-08-31T18:25:12.119Z,52.05
2022-08-31T18:27:40.353Z,52.08
2022-08-31T18:30:13.785Z,51.23
2022-08-31T18:32:42.452Z,52.34
2022-08-31T18:35:18.580Z,51.85
2022-08-31T18:37:46.799Z,51.34
2022-08-31T18:40:33.988Z,53.53
2022-08-31T18:43:20.770Z,53.45
2022-08-31T18:45:50.456Z,54.62
2022-08-31T18:48:25.209Z,53.04
2022-08-31T18:51:03.878Z,53.26
2022-08-31T18:53:34.634Z,52.55
2022-08-31T18:56:09.994Z,52.86
2022-08-31T18:58:39.187Z,52.73
2022-08-31T19:01:11.313Z,52.36
2022-08-31T19:03:41.128Z,51.35
2022-08-31T19:06:18.935Z,51.45
2022-08-31T19:08:48.734Z,50.72
2022-08-31T19:11:19.227Z,51.63
2022-08-31T19:13:51.155Z,53.39
2022-08-31T19:16:28.997Z,51.99
2022-08-31T19:18:58.596Z,52.43
2022-08-31T19:21:33.192Z,51.57
2022-08-31T19:24:05.409Z,52.58
2022-08-31T19:26:44.477Z,52.62
2022-08-31T19:29:14.739Z,52.15
2022-08-31T19:31:46.552Z,52.39
2022-08-31T19:34:20.877Z,52.17
2022-08-31T19:36:53.966Z,52.35
2022-08-31T19:39:27.936Z,51.83
2022-08-31T19:42:03.405Z,53.00
2022-08-31T19:44:54.333Z,52.39
2022-08-31T19:47:24.916Z,52.42
2022-08-31T19:49:53.318Z,52.64
2022-08-31T19:52:21.694Z,53.61
2022-08-31T19:54:49.883Z,54.22
2022-08-31T19:57:21.403Z,54.26
2022-08-31T19:59:49.909Z,52.84
2022-08-31T20:02:18.532Z,54.46
2022-08-31T20:04:46.854Z,53.83
2022-08-31T20:07:15.095Z,53.66
2022-08-31T20:09:43.297Z,55.68
2022-08-31T20:12:11.858Z,56.00
2022-08-31T20:14:40.127Z,54.29
2022-08-31T20:17:09.878Z,53.54
2022-08-31T20:19:39.853Z,54.00
2022-08-31T20:22:08.400Z,55.08
2022-08-31T20:24:43.875Z,54.97
2022-08-31T20:27:18.498Z,54.75
2022-08-31T20:29:48.262Z,55.18
2022-08-31T20:32:16.836Z,54.78
2022-08-31T20:34:45.113Z,55.57
2022-08-31T20:37:13.461Z,55.77
2022-08-31T20:39:42.207Z,56.04
2022-08-31T20:42:10.471Z,56.18
2022-08-31T20:44:39.029Z,57.71
2022-08-31T20:47:29.245Z,56.77
2022-08-31T20:50:01.430Z,57.27
2022-08-31T20:52:33.063Z,58.38
2022-08-31T20:55:05.431Z,58.29
2022-08-31T20:57:37.611Z,58.66
2022-08-31T21:00:10.328Z,59.30
2022-08-31T21:02:39.898Z,57.93
2022-08-31T21:07:59.873Z,58.34
2022-08-31T21:10:37.109Z,58.96
2022-08-31T21:13:09.189Z,59.91
2022-08-31T21:15:44.691Z,59.22
2022-08-31T21:18:17.674Z,59.00
2022-08-31T21:20:47.375Z,59.34
2022-08-31T21:23:15.755Z,59.32
2022-08-31T21:25:46.495Z,59.46
2022-08-31T21:28:17.521Z,60.49
2022-08-31T21:30:50.460Z,62.53
2022-08-31T21:33:19.449Z,60.92
2022-08-31T21:35:47.870Z,60.49
2022-08-31T21:38:16.280Z,59.96
2022-08-31T21:40:50.087Z,60.13
2022-08-31T21:43:18.865Z,59.47
2022-08-31T21:45:47.242Z,59.43
2022-08-31T21:48:15.420Z,60.03
2022-08-31T21:50:44.024Z,60.37
2022-08-31T21:53:12.955Z,60.49
2022-08-31T21:55:41.212Z,60.14
2022-08-31T21:58:09.615Z,59.78
2022-08-31T22:00:42.140Z,59.97
2022-08-31T22:03:10.765Z,59.96
2022-08-31T22:05:43.506Z,60.61
2022-08-31T22:08:11.786Z,62.30
2022-08-31T22:10:42.989Z,61.58
2022-08-31T22:13:13.018Z,62.51
2022-08-31T22:15:42.658Z,61.17
2022-08-31T22:18:58.319Z,60.84
2022-08-31T22:20:59.817Z,62.09
2022-08-31T22:23:28.309Z,61.77
2022-08-31T22:25:57.093Z,61.92
2022-08-31T22:28:27.755Z,62.09
2022-08-31T22:30:56.375Z,61.61
2022-08-31T22:33:24.988Z,62.86
2022-08-31T22:35:53.853Z,61.80
2022-08-31T22:38:21.988Z,62.04
2022-08-31T22:40:50.950Z,61.77
2022-08-31T22:43:19.254Z,62.83
2022-08-31T22:45:49.030Z,61.78
2022-08-31T22:48:17.575Z,63.12
2022-08-31T22:50:46.044Z,62.38
2022-08-31T22:53:14.250Z,61.62
2022-08-31T22:55:43.167Z,62.08
2022-08-31T22:58:12.884Z,60.88
2022-08-31T23:00:42.152Z,62.34
2022-08-31T23:03:14.895Z,62.31
2022-08-31T23:05:44.100Z,63.43
2022-08-31T23:08:14.853Z,63.11
2022-08-31T23:10:44.271Z,63.36
2022-08-31T23:13:12.630Z,62.36
2022-08-31T23:15:40.941Z,63.07
2022-08-31T23:18:10.073Z,63.16
2022-08-31T23:20:40.739Z,63.89
2022-08-31T23:23:10.096Z,63.30
2022-08-31T23:25:40.291Z,63.84
2022-08-31T23:28:09.556Z,64.30
2022-08-31T23:30:38.103Z,63.46
2022-08-31T23:33:07.506Z,63.59
2022-08-31T23:35:35.863Z,64.52
2022-08-31T23:38:04.051Z,65.72
2022-08-31T23:40:34.316Z,64.39
2022-08-31T23:43:03.062Z,64.42
2022-08-31T23:45:33.324Z,64.61
2022-08-31T23:48:01.552Z,63.96
2022-08-31T23:50:29.741Z,63.65
2022-08-31T23:52:57.940Z,63.06
2022-08-31T23:55:29.090Z,63.37
2022-08-31T23:57:58.422Z,62.23
